aviador You're here:

NWWW Decoded Metar

NOUMEA in NEW CALEDONIA
Report Time2018-05-28 05:00:00
UTC Time2018-05-28 05:08:30
Flight Rules vfr VFR
Wind170° at 13 kt
W.Decomp.*RWY 11: 8.7 kt HW 9.7 kt RCW
W.Rank170° ranks 13
Current wind is above 170° avg. (6.6)
Visibility9999 m
Phenomena:N/A
Clouds:Scattered 042 Hf
Broken 048 Hf
Broken 056 Hf
Expected CloudBase > 2,400 ft AGL from Temp-Dew spread
Ceiling4,800 ft
Temp22°C (ISA +7)
Dew Point16°C (69% RH)
AAT19.3°C
QNH1014 hPa
Density Alt1,089 ft
Elevation52 ft
Report Wrong Elevation
Raw Report
METAR NWWW 280500Z AUTO 17013KT 9999 SCT042 BKN048 BKN056 22/16 Q1014
BECMG VRB02KT=

Extra information for NWWW:More info

Metar Taf Metar & Taf Last 4 Metars F.Rules Stats Wind Profile Meteogram Temp Stats Airport Information Weather charts Add Link Nearby VenuesMetar ALERT Operation Metar Decoded Social comments